sensor_id;sensor_type;location;lat;lon;timestamp;P1;durP1;ratioP1;P2;durP2;ratioP2
50737;SDS011;36703;48.154;17.126;2022-11-15T00:01:45;51.08;;;24.75;;
50737;SDS011;36703;48.154;17.126;2022-11-15T00:06:06;46.72;;;24.33;;
50737;SDS011;36703;48.154;17.126;2022-11-15T00:10:26;49.55;;;25.55;;
50737;SDS011;36703;48.154;17.126;2022-11-15T00:14:46;53.75;;;26.02;;
50737;SDS011;36703;48.154;17.126;2022-11-15T00:19:06;46.95;;;24.83;;
50737;SDS011;36703;48.154;17.126;2022-11-15T00:23:27;43.38;;;23.45;;
50737;SDS011;36703;48.154;17.126;2022-11-15T00:27:47;43.03;;;23.55;;
50737;SDS011;36703;48.154;17.126;2022-11-15T00:32:07;44.08;;;24.38;;
50737;SDS011;36703;48.154;17.126;2022-11-15T00:36:32;45.28;;;24.00;;
50737;SDS011;36703;48.154;17.126;2022-11-15T00:40:53;40.28;;;22.95;;
50737;SDS011;36703;48.154;17.126;2022-11-15T00:45:14;43.47;;;23.95;;
50737;SDS011;36703;48.154;17.126;2022-11-15T00:49:34;40.75;;;23.25;;
50737;SDS011;36703;48.154;17.126;2022-11-15T00:53:55;43.80;;;23.33;;
50737;SDS011;36703;48.154;17.126;2022-11-15T00:58:15;39.00;;;23.02;;
50737;SDS011;36703;48.154;17.126;2022-11-15T01:02:35;47.30;;;24.80;;
50737;SDS011;36703;48.154;17.126;2022-11-15T01:06:55;44.47;;;24.08;;
50737;SDS011;36703;48.154;17.126;2022-11-15T01:11:15;46.10;;;24.02;;
50737;SDS011;36703;48.154;17.126;2022-11-15T01:15:38;43.60;;;24.13;;
50737;SDS011;36703;48.154;17.126;2022-11-15T01:20:00;43.38;;;24.13;;
50737;SDS011;36703;48.154;17.126;2022-11-15T01:24:20;45.40;;;24.90;;
50737;SDS011;36703;48.154;17.126;2022-11-15T01:28:41;44.83;;;24.60;;
50737;SDS011;36703;48.154;17.126;2022-11-15T01:33:01;43.83;;;23.80;;
50737;SDS011;36703;48.154;17.126;2022-11-15T01:37:22;45.08;;;24.60;;
50737;SDS011;36703;48.154;17.126;2022-11-15T01:41:42;47.63;;;24.92;;
50737;SDS011;36703;48.154;17.126;2022-11-15T01:46:04;45.08;;;25.20;;
50737;SDS011;36703;48.154;17.126;2022-11-15T01:50:34;46.65;;;25.73;;
50737;SDS011;36703;48.154;17.126;2022-11-15T01:54:56;47.75;;;26.38;;
50737;SDS011;36703;48.154;17.126;2022-11-15T01:59:41;46.40;;;25.77;;
50737;SDS011;36703;48.154;17.126;2022-11-15T02:04:06;45.22;;;25.23;;
50737;SDS011;36703;48.154;17.126;2022-11-15T02:08:35;45.92;;;25.45;;
50737;SDS011;36703;48.154;17.126;2022-11-15T02:12:55;45.58;;;23.98;;
50737;SDS011;36703;48.154;17.126;2022-11-15T02:32:13;48.22;;;25.50;;
50737;SDS011;36703;48.154;17.126;2022-11-15T02:42:06;51.35;;;26.00;;
50737;SDS011;36703;48.154;17.126;2022-11-15T02:51:11;55.55;;;27.30;;
50737;SDS011;36703;48.154;17.126;2022-11-15T03:00:05;59.92;;;27.55;;
50737;SDS011;36703;48.154;17.126;2022-11-15T03:04:35;53.88;;;28.40;;
50737;SDS011;36703;48.154;17.126;2022-11-15T03:14:32;61.80;;;29.88;;
50737;SDS011;36703;48.154;17.126;2022-11-15T03:19:00;59.33;;;31.17;;
50737;SDS011;36703;48.154;17.126;2022-11-15T03:23:26;63.53;;;31.30;;
50737;SDS011;36703;48.154;17.126;2022-11-15T03:27:50;61.50;;;30.80;;
50737;SDS011;36703;48.154;17.126;2022-11-15T03:32:18;63.80;;;32.22;;
50737;SDS011;36703;48.154;17.126;2022-11-15T03:36:44;61.33;;;31.20;;
50737;SDS011;36703;48.154;17.126;2022-11-15T03:41:08;67.32;;;32.88;;
50737;SDS011;36703;48.154;17.126;2022-11-15T03:45:42;71.10;;;32.97;;
50737;SDS011;36703;48.154;17.126;2022-11-15T03:50:09;63.40;;;32.23;;
50737;SDS011;36703;48.154;17.126;2022-11-15T03:54:32;62.90;;;32.70;;
50737;SDS011;36703;48.154;17.126;2022-11-15T03:58:53;69.22;;;34.05;;
50737;SDS011;36703;48.154;17.126;2022-11-15T04:03:13;68.43;;;34.35;;
50737;SDS011;36703;48.154;17.126;2022-11-15T04:07:33;66.35;;;34.28;;
50737;SDS011;36703;48.154;17.126;2022-11-15T04:11:53;68.15;;;35.50;;
50737;SDS011;36703;48.154;17.126;2022-11-15T04:16:14;66.97;;;35.40;;
50737;SDS011;36703;48.154;17.126;2022-11-15T04:20:34;70.35;;;36.10;;
50737;SDS011;36703;48.154;17.126;2022-11-15T04:25:13;66.90;;;35.15;;
50737;SDS011;36703;48.154;17.126;2022-11-15T04:29:33;67.95;;;33.80;;
50737;SDS011;36703;48.154;17.126;2022-11-15T04:33:53;59.87;;;33.53;;
50737;SDS011;36703;48.154;17.126;2022-11-15T04:38:14;64.70;;;33.53;;
50737;SDS011;36703;48.154;17.126;2022-11-15T04:42:34;64.32;;;33.22;;
50737;SDS011;36703;48.154;17.126;2022-11-15T04:46:55;55.17;;;26.38;;
50737;SDS011;36703;48.154;17.126;2022-11-15T04:51:16;71.60;;;35.03;;
50737;SDS011;36703;48.154;17.126;2022-11-15T04:55:36;66.20;;;33.47;;
50737;SDS011;36703;48.154;17.126;2022-11-15T04:59:57;69.93;;;34.65;;
50737;SDS011;36703;48.154;17.126;2022-11-15T05:04:17;67.05;;;34.17;;
50737;SDS011;36703;48.154;17.126;2022-11-15T05:08:40;56.13;;;32.53;;
50737;SDS011;36703;48.154;17.126;2022-11-15T05:13:01;63.00;;;34.38;;
50737;SDS011;36703;48.154;17.126;2022-11-15T05:17:21;61.00;;;32.85;;
50737;SDS011;36703;48.154;17.126;2022-11-15T05:21:42;63.92;;;33.53;;
50737;SDS011;36703;48.154;17.126;2022-11-15T05:26:02;62.30;;;32.65;;
50737;SDS011;36703;48.154;17.126;2022-11-15T05:30:24;60.60;;;33.17;;
50737;SDS011;36703;48.154;17.126;2022-11-15T05:34:44;65.10;;;33.17;;
50737;SDS011;36703;48.154;17.126;2022-11-15T05:39:06;56.45;;;31.02;;
50737;SDS011;36703;48.154;17.126;2022-11-15T05:43:27;59.95;;;32.33;;
50737;SDS011;36703;48.154;17.126;2022-11-15T05:47:50;61.35;;;32.58;;
50737;SDS011;36703;48.154;17.126;2022-11-15T05:52:11;54.55;;;32.05;;
50737;SDS011;36703;48.154;17.126;2022-11-15T05:56:34;55.53;;;31.20;;
50737;SDS011;36703;48.154;17.126;2022-11-15T06:00:55;55.33;;;30.00;;
50737;SDS011;36703;48.154;17.126;2022-11-15T06:05:15;52.78;;;29.90;;
50737;SDS011;36703;48.154;17.126;2022-11-15T06:09:35;51.78;;;29.98;;
50737;SDS011;36703;48.154;17.126;2022-11-15T06:13:56;52.40;;;28.73;;
50737;SDS011;36703;48.154;17.126;2022-11-15T06:18:16;56.58;;;29.75;;
50737;SDS011;36703;48.154;17.126;2022-11-15T06:22:36;55.33;;;29.48;;
50737;SDS011;36703;48.154;17.126;2022-11-15T06:26:57;56.63;;;29.65;;
50737;SDS011;36703;48.154;17.126;2022-11-15T06:31:18;54.88;;;29.13;;
50737;SDS011;36703;48.154;17.126;2022-11-15T06:35:38;55.70;;;29.23;;
50737;SDS011;36703;48.154;17.126;2022-11-15T06:39:58;50.42;;;27.52;;
50737;SDS011;36703;48.154;17.126;2022-11-15T06:44:19;47.15;;;25.45;;
50737;SDS011;36703;48.154;17.126;2022-11-15T06:48:39;43.58;;;25.02;;
50737;SDS011;36703;48.154;17.126;2022-11-15T06:53:03;43.15;;;24.95;;
50737;SDS011;36703;48.154;17.126;2022-11-15T06:57:23;44.05;;;24.35;;
50737;SDS011;36703;48.154;17.126;2022-11-15T07:01:43;41.45;;;24.00;;
50737;SDS011;36703;48.154;17.126;2022-11-15T07:06:04;40.75;;;22.63;;
50737;SDS011;36703;48.154;17.126;2022-11-15T07:10:25;37.67;;;21.92;;
50737;SDS011;36703;48.154;17.126;2022-11-15T07:14:46;38.67;;;20.60;;
50737;SDS011;36703;48.154;17.126;2022-11-15T07:19:08;35.60;;;21.27;;
50737;SDS011;36703;48.154;17.126;2022-11-15T07:27:53;35.08;;;21.13;;
50737;SDS011;36703;48.154;17.126;2022-11-15T07:32:17;39.00;;;21.95;;
50737;SDS011;36703;48.154;17.126;2022-11-15T07:36:38;37.90;;;21.42;;
50737;SDS011;36703;48.154;17.126;2022-11-15T07:41:02;38.55;;;21.10;;
50737;SDS011;36703;48.154;17.126;2022-11-15T07:45:24;37.58;;;20.98;;
50737;SDS011;36703;48.154;17.126;2022-11-15T07:49:48;34.03;;;21.05;;
50737;SDS011;36703;48.154;17.126;2022-11-15T07:54:08;39.03;;;21.65;;
50737;SDS011;36703;48.154;17.126;2022-11-15T07:58:28;38.60;;;21.52;;
50737;SDS011;36703;48.154;17.126;2022-11-15T08:02:49;34.53;;;20.33;;
50737;SDS011;36703;48.154;17.126;2022-11-15T08:07:09;37.13;;;20.50;;
50737;SDS011;36703;48.154;17.126;2022-11-15T08:11:29;34.70;;;20.42;;
50737;SDS011;36703;48.154;17.126;2022-11-15T08:15:49;36.53;;;21.08;;
50737;SDS011;36703;48.154;17.126;2022-11-15T08:20:12;35.92;;;21.13;;
50737;SDS011;36703;48.154;17.126;2022-11-15T08:24:33;38.17;;;21.13;;
50737;SDS011;36703;48.154;17.126;2022-11-15T08:28:53;36.15;;;20.63;;
50737;SDS011;36703;48.154;17.126;2022-11-15T08:33:13;37.70;;;22.08;;
50737;SDS011;36703;48.154;17.126;2022-11-15T08:37:34;38.38;;;22.13;;
50737;SDS011;36703;48.154;17.126;2022-11-15T08:41:54;39.72;;;22.33;;
50737;SDS011;36703;48.154;17.126;2022-11-15T08:46:15;36.40;;;22.20;;
50737;SDS011;36703;48.154;17.126;2022-11-15T08:50:35;36.60;;;21.63;;
50737;SDS011;36703;48.154;17.126;2022-11-15T08:54:55;35.58;;;21.55;;
50737;SDS011;36703;48.154;17.126;2022-11-15T08:59:16;39.22;;;21.75;;
50737;SDS011;36703;48.154;17.126;2022-11-15T09:03:36;36.05;;;21.27;;
50737;SDS011;36703;48.154;17.126;2022-11-15T09:07:59;35.97;;;21.63;;
50737;SDS011;36703;48.154;17.126;2022-11-15T09:12:19;31.27;;;20.75;;
50737;SDS011;36703;48.154;17.126;2022-11-15T09:16:39;38.83;;;22.00;;
50737;SDS011;36703;48.154;17.126;2022-11-15T09:21:00;35.30;;;20.67;;
50737;SDS011;36703;48.154;17.126;2022-11-15T09:25:22;36.08;;;21.60;;
50737;SDS011;36703;48.154;17.126;2022-11-15T09:29:42;37.65;;;22.25;;
50737;SDS011;36703;48.154;17.126;2022-11-15T09:34:02;38.55;;;22.67;;
50737;SDS011;36703;48.154;17.126;2022-11-15T09:38:23;35.40;;;21.25;;
50737;SDS011;36703;48.154;17.126;2022-11-15T09:52:16;40.30;;;23.40;;
50737;SDS011;36703;48.154;17.126;2022-11-15T09:56:20;38.50;;;23.17;;
50737;SDS011;36703;48.154;17.126;2022-11-15T10:00:35;40.88;;;24.10;;
50737;SDS011;36703;48.154;17.126;2022-11-15T10:04:42;37.67;;;22.45;;
50737;SDS011;36703;48.154;17.126;2022-11-15T10:08:59;43.72;;;22.13;;
50737;SDS011;36703;48.154;17.126;2022-11-15T10:13:18;39.40;;;22.08;;
50737;SDS011;36703;48.154;17.126;2022-11-15T10:26:30;41.38;;;23.73;;
50737;SDS011;36703;48.154;17.126;2022-11-15T10:34:46;45.78;;;25.25;;
50737;SDS011;36703;48.154;17.126;2022-11-15T10:47:28;41.42;;;25.20;;
50737;SDS011;36703;48.154;17.126;2022-11-15T10:51:32;39.03;;;23.63;;
50737;SDS011;36703;48.154;17.126;2022-11-15T10:55:45;43.53;;;24.85;;
50737;SDS011;36703;48.154;17.126;2022-11-15T10:59:54;43.92;;;25.58;;
50737;SDS011;36703;48.154;17.126;2022-11-15T11:04:00;48.75;;;26.33;;
50737;SDS011;36703;48.154;17.126;2022-11-15T11:12:11;52.10;;;27.52;;
50737;SDS011;36703;48.154;17.126;2022-11-15T11:16:24;44.70;;;25.10;;
50737;SDS011;36703;48.154;17.126;2022-11-15T11:20:48;46.03;;;25.77;;
50737;SDS011;36703;48.154;17.126;2022-11-15T11:25:07;46.40;;;26.83;;
50737;SDS011;36703;48.154;17.126;2022-11-15T11:29:26;46.00;;;26.52;;
50737;SDS011;36703;48.154;17.126;2022-11-15T11:33:48;45.85;;;26.13;;
50737;SDS011;36703;48.154;17.126;2022-11-15T11:38:19;45.78;;;26.27;;
50737;SDS011;36703;48.154;17.126;2022-11-15T11:42:52;48.78;;;27.60;;
50737;SDS011;36703;48.154;17.126;2022-11-15T11:47:24;53.20;;;28.37;;
50737;SDS011;36703;48.154;17.126;2022-11-15T11:51:43;49.67;;;27.90;;
50737;SDS011;36703;48.154;17.126;2022-11-15T11:55:54;49.28;;;28.25;;
50737;SDS011;36703;48.154;17.126;2022-11-15T12:00:15;48.70;;;27.55;;
50737;SDS011;36703;48.154;17.126;2022-11-15T12:08:53;53.20;;;27.92;;
50737;SDS011;36703;48.154;17.126;2022-11-15T12:13:10;46.72;;;28.08;;
50737;SDS011;36703;48.154;17.126;2022-11-15T12:17:21;49.65;;;28.52;;
50737;SDS011;36703;48.154;17.126;2022-11-15T12:30:17;52.45;;;29.35;;
50737;SDS011;36703;48.154;17.126;2022-11-15T12:47:22;54.92;;;29.73;;
50737;SDS011;36703;48.154;17.126;2022-11-15T12:55:43;53.38;;;30.00;;
50737;SDS011;36703;48.154;17.126;2022-11-15T13:04:28;55.78;;;29.58;;
50737;SDS011;36703;48.154;17.126;2022-11-15T13:08:41;53.45;;;29.92;;
50737;SDS011;36703;48.154;17.126;2022-11-15T13:12:49;53.05;;;30.08;;
50737;SDS011;36703;48.154;17.126;2022-11-15T13:16:59;59.75;;;31.52;;
50737;SDS011;36703;48.154;17.126;2022-11-15T13:21:02;58.38;;;29.52;;
50737;SDS011;36703;48.154;17.126;2022-11-15T13:25:41;55.50;;;28.55;;
50737;SDS011;36703;48.154;17.126;2022-11-15T13:30:04;52.30;;;29.88;;
50737;SDS011;36703;48.154;17.126;2022-11-15T13:34:17;49.42;;;29.00;;
50737;SDS011;36703;48.154;17.126;2022-11-15T13:38:28;56.80;;;30.35;;
50737;SDS011;36703;48.154;17.126;2022-11-15T13:46:40;56.45;;;31.55;;
50737;SDS011;36703;48.154;17.126;2022-11-15T13:50:43;59.95;;;31.67;;
50737;SDS011;36703;48.154;17.126;2022-11-15T13:54:46;64.38;;;32.45;;
50737;SDS011;36703;48.154;17.126;2022-11-15T13:58:58;65.47;;;33.85;;
50737;SDS011;36703;48.154;17.126;2022-11-15T14:03:07;58.80;;;32.72;;
50737;SDS011;36703;48.154;17.126;2022-11-15T14:07:19;68.70;;;33.55;;
50737;SDS011;36703;48.154;17.126;2022-11-15T14:11:23;57.65;;;31.73;;
50737;SDS011;36703;48.154;17.126;2022-11-15T14:15:30;58.90;;;32.92;;
50737;SDS011;36703;48.154;17.126;2022-11-15T14:19:37;61.95;;;30.45;;
50737;SDS011;36703;48.154;17.126;2022-11-15T14:23:40;53.95;;;30.33;;
50737;SDS011;36703;48.154;17.126;2022-11-15T14:27:43;51.60;;;29.98;;
50737;SDS011;36703;48.154;17.126;2022-11-15T14:36:30;52.60;;;29.52;;
50737;SDS011;36703;48.154;17.126;2022-11-15T14:40:31;54.33;;;29.20;;
50737;SDS011;36703;48.154;17.126;2022-11-15T14:44:33;51.35;;;29.38;;
50737;SDS011;36703;48.154;17.126;2022-11-15T14:48:35;58.63;;;29.30;;
50737;SDS011;36703;48.154;17.126;2022-11-15T14:52:37;55.42;;;27.42;;
50737;SDS011;36703;48.154;17.126;2022-11-15T14:56:39;44.13;;;27.00;;
50737;SDS011;36703;48.154;17.126;2022-11-15T15:00:41;43.47;;;26.52;;
50737;SDS011;36703;48.154;17.126;2022-11-15T15:04:43;54.40;;;28.13;;
50737;SDS011;36703;48.154;17.126;2022-11-15T15:08:45;53.67;;;27.65;;
50737;SDS011;36703;48.154;17.126;2022-11-15T15:12:49;47.22;;;27.75;;
50737;SDS011;36703;48.154;17.126;2022-11-15T15:16:50;52.15;;;28.08;;
50737;SDS011;36703;48.154;17.126;2022-11-15T15:20:56;45.45;;;26.77;;
50737;SDS011;36703;48.154;17.126;2022-11-15T15:25:03;40.83;;;25.10;;
50737;SDS011;36703;48.154;17.126;2022-11-15T15:29:32;44.85;;;24.98;;
50737;SDS011;36703;48.154;17.126;2022-11-15T15:33:34;41.97;;;24.25;;
50737;SDS011;36703;48.154;17.126;2022-11-15T15:37:36;45.53;;;24.65;;
50737;SDS011;36703;48.154;17.126;2022-11-15T15:41:37;42.08;;;24.33;;
50737;SDS011;36703;48.154;17.126;2022-11-15T15:45:39;45.28;;;23.88;;
50737;SDS011;36703;48.154;17.126;2022-11-15T15:49:42;42.63;;;24.23;;
50737;SDS011;36703;48.154;17.126;2022-11-15T15:53:44;42.05;;;23.05;;
50737;SDS011;36703;48.154;17.126;2022-11-15T15:57:45;44.60;;;24.30;;
50737;SDS011;36703;48.154;17.126;2022-11-15T16:01:48;46.08;;;25.10;;
50737;SDS011;36703;48.154;17.126;2022-11-15T16:05:50;42.97;;;23.88;;
50737;SDS011;36703;48.154;17.126;2022-11-15T16:09:52;44.65;;;25.92;;
50737;SDS011;36703;48.154;17.126;2022-11-15T16:14:01;46.08;;;25.58;;
50737;SDS011;36703;48.154;17.126;2022-11-15T16:18:04;46.92;;;25.40;;
50737;SDS011;36703;48.154;17.126;2022-11-15T16:22:08;49.10;;;27.52;;
50737;SDS011;36703;48.154;17.126;2022-11-15T16:26:20;53.45;;;28.23;;
50737;SDS011;36703;48.154;17.126;2022-11-15T16:30:27;49.72;;;27.45;;
50737;SDS011;36703;48.154;17.126;2022-11-15T16:34:30;49.92;;;27.80;;
50737;SDS011;36703;48.154;17.126;2022-11-15T16:38:32;54.72;;;30.40;;
50737;SDS011;36703;48.154;17.126;2022-11-15T16:42:33;65.65;;;33.33;;
50737;SDS011;36703;48.154;17.126;2022-11-15T16:46:35;59.92;;;31.42;;
50737;SDS011;36703;48.154;17.126;2022-11-15T16:50:37;61.78;;;33.65;;
50737;SDS011;36703;48.154;17.126;2022-11-15T16:54:41;70.20;;;33.35;;
50737;SDS011;36703;48.154;17.126;2022-11-15T16:58:42;72.32;;;34.92;;
50737;SDS011;36703;48.154;17.126;2022-11-15T17:02:45;69.53;;;34.75;;
50737;SDS011;36703;48.154;17.126;2022-11-15T17:06:48;73.07;;;35.55;;
50737;SDS011;36703;48.154;17.126;2022-11-15T17:10:50;73.95;;;37.58;;
50737;SDS011;36703;48.154;17.126;2022-11-15T17:14:51;74.72;;;37.13;;
50737;SDS011;36703;48.154;17.126;2022-11-15T17:18:53;77.40;;;38.83;;
50737;SDS011;36703;48.154;17.126;2022-11-15T17:22:55;74.35;;;38.30;;
50737;SDS011;36703;48.154;17.126;2022-11-15T17:26:56;81.05;;;41.38;;
50737;SDS011;36703;48.154;17.126;2022-11-15T17:30:58;80.20;;;41.05;;
50737;SDS011;36703;48.154;17.126;2022-11-15T17:35:00;78.07;;;40.95;;
50737;SDS011;36703;48.154;17.126;2022-11-15T17:39:02;83.78;;;42.78;;
50737;SDS011;36703;48.154;17.126;2022-11-15T17:43:05;84.22;;;41.70;;
50737;SDS011;36703;48.154;17.126;2022-11-15T17:47:07;83.57;;;40.55;;
50737;SDS011;36703;48.154;17.126;2022-11-15T17:51:13;74.78;;;39.25;;
50737;SDS011;36703;48.154;17.126;2022-11-15T17:55:16;79.50;;;39.65;;
50737;SDS011;36703;48.154;17.126;2022-11-15T17:59:18;79.00;;;39.90;;
50737;SDS011;36703;48.154;17.126;2022-11-15T18:03:19;85.10;;;39.90;;
50737;SDS011;36703;48.154;17.126;2022-11-15T18:07:24;77.13;;;39.17;;
50737;SDS011;36703;48.154;17.126;2022-11-15T18:11:29;77.78;;;38.53;;
50737;SDS011;36703;48.154;17.126;2022-11-15T18:15:39;74.53;;;38.20;;
50737;SDS011;36703;48.154;17.126;2022-11-15T18:19:41;80.65;;;40.70;;
50737;SDS011;36703;48.154;17.126;2022-11-15T18:23:43;81.40;;;40.83;;
50737;SDS011;36703;48.154;17.126;2022-11-15T18:27:45;80.63;;;40.53;;
50737;SDS011;36703;48.154;17.126;2022-11-15T18:31:48;74.80;;;40.15;;
50737;SDS011;36703;48.154;17.126;2022-11-15T18:35:58;79.68;;;39.42;;
50737;SDS011;36703;48.154;17.126;2022-11-15T18:40:07;80.55;;;38.15;;
50737;SDS011;36703;48.154;17.126;2022-11-15T18:44:09;75.05;;;40.08;;
50737;SDS011;36703;48.154;17.126;2022-11-15T18:48:11;71.90;;;37.60;;
50737;SDS011;36703;48.154;17.126;2022-11-15T18:52:12;73.75;;;38.63;;
50737;SDS011;36703;48.154;17.126;2022-11-15T18:56:15;76.18;;;38.33;;
50737;SDS011;36703;48.154;17.126;2022-11-15T19:00:19;81.25;;;40.33;;
50737;SDS011;36703;48.154;17.126;2022-11-15T19:04:21;79.38;;;39.83;;
50737;SDS011;36703;48.154;17.126;2022-11-15T19:08:23;81.10;;;41.25;;
50737;SDS011;36703;48.154;17.126;2022-11-15T19:12:25;81.72;;;40.72;;
50737;SDS011;36703;48.154;17.126;2022-11-15T19:16:26;80.45;;;39.97;;
50737;SDS011;36703;48.154;17.126;2022-11-15T19:20:29;85.55;;;37.45;;
50737;SDS011;36703;48.154;17.126;2022-11-15T19:24:31;76.82;;;36.92;;
50737;SDS011;36703;48.154;17.126;2022-11-15T19:28:33;80.78;;;36.63;;
50737;SDS011;36703;48.154;17.126;2022-11-15T19:32:35;78.40;;;36.55;;
50737;SDS011;36703;48.154;17.126;2022-11-15T19:36:40;78.90;;;37.35;;
50737;SDS011;36703;48.154;17.126;2022-11-15T19:40:43;83.40;;;37.58;;
50737;SDS011;36703;48.154;17.126;2022-11-15T19:44:45;83.82;;;37.97;;
50737;SDS011;36703;48.154;17.126;2022-11-15T19:48:47;78.32;;;35.05;;
50737;SDS011;36703;48.154;17.126;2022-11-15T19:52:50;72.68;;;34.05;;
50737;SDS011;36703;48.154;17.126;2022-11-15T19:56:51;67.05;;;32.05;;
50737;SDS011;36703;48.154;17.126;2022-11-15T20:01:00;68.13;;;30.92;;
50737;SDS011;36703;48.154;17.126;2022-11-15T20:05:10;63.53;;;30.27;;
50737;SDS011;36703;48.154;17.126;2022-11-15T20:09:12;64.93;;;29.38;;
50737;SDS011;36703;48.154;17.126;2022-11-15T20:13:15;58.03;;;28.38;;
50737;SDS011;36703;48.154;17.126;2022-11-15T20:17:17;72.88;;;31.70;;
50737;SDS011;36703;48.154;17.126;2022-11-15T20:21:19;69.70;;;30.95;;
50737;SDS011;36703;48.154;17.126;2022-11-15T20:25:21;62.92;;;30.95;;
50737;SDS011;36703;48.154;17.126;2022-11-15T20:29:23;64.13;;;30.15;;
50737;SDS011;36703;48.154;17.126;2022-11-15T20:33:25;63.65;;;29.40;;
50737;SDS011;36703;48.154;17.126;2022-11-15T20:37:27;60.35;;;30.13;;
50737;SDS011;36703;48.154;17.126;2022-11-15T20:41:28;65.70;;;29.65;;
50737;SDS011;36703;48.154;17.126;2022-11-15T20:45:30;62.60;;;29.98;;
50737;SDS011;36703;48.154;17.126;2022-11-15T20:49:32;64.30;;;30.27;;
50737;SDS011;36703;48.154;17.126;2022-11-15T20:53:34;66.80;;;30.10;;
50737;SDS011;36703;48.154;17.126;2022-11-15T20:57:35;67.68;;;31.52;;
50737;SDS011;36703;48.154;17.126;2022-11-15T21:01:37;63.95;;;31.05;;
50737;SDS011;36703;48.154;17.126;2022-11-15T21:05:42;72.70;;;34.67;;
50737;SDS011;36703;48.154;17.126;2022-11-15T21:09:44;70.25;;;32.45;;
50737;SDS011;36703;48.154;17.126;2022-11-15T21:14:05;74.28;;;33.83;;
50737;SDS011;36703;48.154;17.126;2022-11-15T21:18:07;75.40;;;33.88;;
50737;SDS011;36703;48.154;17.126;2022-11-15T21:22:09;72.82;;;34.00;;
50737;SDS011;36703;48.154;17.126;2022-11-15T21:26:14;73.40;;;35.22;;
50737;SDS011;36703;48.154;17.126;2022-11-15T21:30:16;73.35;;;34.38;;
50737;SDS011;36703;48.154;17.126;2022-11-15T21:34:18;78.55;;;35.55;;
50737;SDS011;36703;48.154;17.126;2022-11-15T21:38:20;75.30;;;34.70;;
50737;SDS011;36703;48.154;17.126;2022-11-15T21:42:23;79.97;;;35.85;;
50737;SDS011;36703;48.154;17.126;2022-11-15T21:46:25;88.72;;;36.40;;
50737;SDS011;36703;48.154;17.126;2022-11-15T21:50:29;89.68;;;38.03;;
50737;SDS011;36703;48.154;17.126;2022-11-15T21:54:30;82.20;;;36.33;;
50737;SDS011;36703;48.154;17.126;2022-11-15T21:58:32;96.07;;;38.78;;
50737;SDS011;36703;48.154;17.126;2022-11-15T22:02:35;93.35;;;37.85;;
50737;SDS011;36703;48.154;17.126;2022-11-15T22:06:36;91.15;;;38.50;;
50737;SDS011;36703;48.154;17.126;2022-11-15T22:10:38;99.63;;;40.60;;
50737;SDS011;36703;48.154;17.126;2022-11-15T22:14:40;93.70;;;39.22;;
50737;SDS011;36703;48.154;17.126;2022-11-15T22:18:41;102.30;;;42.13;;
50737;SDS011;36703;48.154;17.126;2022-11-15T22:22:43;96.60;;;40.83;;
50737;SDS011;36703;48.154;17.126;2022-11-15T22:26:45;104.95;;;41.78;;
50737;SDS011;36703;48.154;17.126;2022-11-15T22:30:47;100.00;;;41.83;;
50737;SDS011;36703;48.154;17.126;2022-11-15T22:34:51;94.53;;;40.30;;
50737;SDS011;36703;48.154;17.126;2022-11-15T22:38:53;106.53;;;41.38;;
50737;SDS011;36703;48.154;17.126;2022-11-15T22:42:55;103.22;;;41.53;;
50737;SDS011;36703;48.154;17.126;2022-11-15T22:46:57;102.18;;;41.47;;
50737;SDS011;36703;48.154;17.126;2022-11-15T22:50:58;103.18;;;40.20;;
50737;SDS011;36703;48.154;17.126;2022-11-15T22:55:01;106.47;;;40.83;;
50737;SDS011;36703;48.154;17.126;2022-11-15T22:59:02;103.88;;;39.47;;
50737;SDS011;36703;48.154;17.126;2022-11-15T23:03:04;102.68;;;39.58;;
50737;SDS011;36703;48.154;17.126;2022-11-15T23:07:07;103.70;;;38.92;;
50737;SDS011;36703;48.154;17.126;2022-11-15T23:11:09;106.78;;;38.95;;
50737;SDS011;36703;48.154;17.126;2022-11-15T23:15:30;104.47;;;39.03;;
50737;SDS011;36703;48.154;17.126;2022-11-15T23:19:52;97.63;;;37.00;;
50737;SDS011;36703;48.154;17.126;2022-11-15T23:23:53;96.43;;;37.97;;
50737;SDS011;36703;48.154;17.126;2022-11-15T23:27:55;100.70;;;37.78;;
50737;SDS011;36703;48.154;17.126;2022-11-15T23:31:57;93.57;;;35.58;;
50737;SDS011;36703;48.154;17.126;2022-11-15T23:36:17;94.82;;;36.35;;
50737;SDS011;36703;48.154;17.126;2022-11-15T23:44:55;88.75;;;35.45;;
50737;SDS011;36703;48.154;17.126;2022-11-15T23:48:58;97.10;;;35.97;;
50737;SDS011;36703;48.154;17.126;2022-11-15T23:52:59;102.10;;;38.42;;
50737;SDS011;36703;48.154;17.126;2022-11-15T23:57:01;96.72;;;35.60;;
